createdAt,value
2022-11-18T00:20:46.860Z,20.50
2022-11-18T00:21:49.006Z,19.50
2022-11-18T00:22:50.960Z,19.89
2022-11-18T00:23:52.667Z,17.56
2022-11-18T00:24:54.406Z,18.89
2022-11-18T00:26:02.171Z,9.56
2022-11-18T00:27:04.234Z,18.70
2022-11-18T00:28:05.843Z,19.78
2022-11-18T00:29:09.596Z,18.33
2022-11-18T00:30:11.968Z,15.10
2022-11-18T00:31:14.091Z,15.10
2022-11-18T00:32:15.827Z,15.11
2022-11-18T00:33:17.778Z,17.78
2022-11-18T00:34:20.035Z,19.70
2022-11-18T00:35:21.873Z,19.30
2022-11-18T00:36:23.607Z,18.67
2022-11-18T00:37:25.819Z,17.67
2022-11-18T00:38:29.223Z,22.40
2022-11-18T00:39:31.184Z,16.00
2022-11-18T00:40:32.878Z,14.33
2022-11-18T00:41:34.730Z,17.56
2022-11-18T00:42:36.351Z,18.44
2022-11-18T00:43:38.497Z,11.56
2022-11-18T00:44:40.309Z,19.30
2022-11-18T00:45:42.930Z,17.78
2022-11-18T00:46:44.720Z,19.30
2022-11-18T00:47:46.767Z,18.89
2022-11-18T00:48:48.545Z,17.50
2022-11-18T00:49:50.308Z,21.22
2022-11-18T00:50:55.117Z,20.22
2022-11-18T00:51:57.659Z,15.80
2022-11-18T00:52:59.845Z,16.67
2022-11-18T00:54:02.784Z,19.20
2022-11-18T00:55:06.962Z,17.55
2022-11-18T00:56:09.610Z,18.60
2022-11-18T00:57:11.286Z,17.50
2022-11-18T00:58:13.352Z,19.44
2022-11-18T00:59:15.400Z,16.10
2022-11-18T01:00:22.455Z,20.00
2022-11-18T01:01:31.947Z,16.30
2022-11-18T01:02:33.889Z,15.50
2022-11-18T01:03:35.756Z,18.00
2022-11-18T01:04:37.624Z,16.33
2022-11-18T01:05:40.945Z,18.89
2022-11-18T01:06:43.029Z,9.00
2022-11-18T01:07:45.431Z,17.40
2022-11-18T01:08:55.784Z,16.90
2022-11-18T01:10:05.607Z,19.30
2022-11-18T01:11:07.964Z,16.20
2022-11-18T01:12:11.460Z,16.20
2022-11-18T01:13:17.116Z,18.00
2022-11-18T01:14:19.133Z,17.20
2022-11-18T01:15:21.153Z,17.50
2022-11-18T01:16:25.916Z,17.78
2022-11-18T01:18:40.640Z,16.10
2022-11-18T01:19:43.742Z,15.09
2022-11-18T01:20:46.193Z,15.10
2022-11-18T01:21:48.140Z,14.40
2022-11-18T01:22:49.763Z,19.11
2022-11-18T01:23:51.574Z,19.89
2022-11-18T01:24:53.313Z,8.44
2022-11-18T01:25:56.132Z,20.33
2022-11-18T01:26:59.017Z,21.00
2022-11-18T01:28:01.051Z,19.50
2022-11-18T01:29:02.883Z,16.44
2022-11-18T01:30:05.520Z,17.67
2022-11-18T01:31:11.255Z,17.80
2022-11-18T01:32:28.540Z,15.70
2022-11-18T01:33:16.891Z,14.50
2022-11-18T01:34:18.597Z,16.22
2022-11-18T01:35:20.310Z,15.00
2022-11-18T01:36:25.531Z,20.11
2022-11-18T01:37:28.589Z,21.60
2022-11-18T01:38:30.522Z,17.00
2022-11-18T01:39:32.135Z,23.78
2022-11-18T01:40:35.715Z,15.67
2022-11-18T01:41:37.574Z,19.60
2022-11-18T01:42:39.758Z,18.67
2022-11-18T01:43:57.451Z,18.60
2022-11-18T01:45:09.838Z,16.90
2022-11-18T01:46:12.447Z,16.40
2022-11-18T01:47:14.813Z,20.33
2022-11-18T01:48:20.347Z,16.00
2022-11-18T01:49:22.274Z,19.70
2022-11-18T01:50:25.852Z,17.30
2022-11-18T01:51:40.513Z,15.60
2022-11-18T01:52:45.232Z,14.10
2022-11-18T01:53:50.235Z,16.70
2022-11-18T01:54:55.758Z,17.50
2022-11-18T01:56:01.685Z,17.30
2022-11-18T01:57:07.188Z,19.80
2022-11-18T01:58:21.547Z,22.10
2022-11-18T01:59:27.262Z,18.10
2022-11-18T02:00:29.300Z,18.20
2022-11-18T02:01:32.096Z,18.20
2022-11-18T02:02:37.340Z,16.50
2022-11-18T02:03:41.470Z,20.50
2022-11-18T02:04:47.196Z,12.20
2022-11-18T02:05:49.960Z,18.30
2022-11-18T02:06:53.712Z,17.80
2022-11-18T02:07:57.449Z,19.00
2022-11-18T02:09:01.262Z,22.10
2022-11-18T02:10:05.527Z,17.80
2022-11-18T02:11:15.740Z,17.60
2022-11-18T02:12:18.443Z,20.30
2022-11-18T02:13:21.760Z,18.40
2022-11-18T02:14:29.785Z,15.70
2022-11-18T02:15:55.199Z,18.10
2022-11-18T02:17:12.545Z,9.20
2022-11-18T02:18:21.161Z,18.20
2022-11-18T02:19:59.390Z,15.80
2022-11-18T02:22:44.731Z,13.40
2022-11-18T02:23:50.360Z,15.10
2022-11-18T02:25:01.604Z,19.30
2022-11-18T02:26:19.542Z,17.30
2022-11-18T02:27:42.883Z,18.00
2022-11-18T02:29:03.832Z,16.70
2022-11-18T02:30:15.995Z,17.00
2022-11-18T02:31:34.260Z,17.10
2022-11-18T02:32:43.068Z,13.90
2022-11-18T02:33:54.961Z,17.10
2022-11-18T02:35:09.178Z,15.60
2022-11-18T02:36:24.565Z,16.10
2022-11-18T02:37:36.323Z,22.20
2022-11-18T02:38:42.100Z,17.80
2022-11-18T02:39:50.462Z,14.70
2022-11-18T02:41:11.422Z,16.30
2022-11-18T02:42:15.201Z,14.60
2022-11-18T02:43:26.571Z,14.00
2022-11-18T02:44:30.447Z,14.40
2022-11-18T02:45:34.253Z,12.50
2022-11-18T02:46:39.011Z,13.40
2022-11-18T02:47:44.648Z,17.50
2022-11-18T02:48:53.371Z,12.40
2022-11-18T02:50:01.823Z,12.40
2022-11-18T02:51:07.494Z,14.10
2022-11-18T02:52:11.533Z,15.20
2022-11-18T02:53:16.044Z,11.20
2022-11-18T02:54:22.376Z,8.70
2022-11-18T02:55:28.098Z,14.50
2022-11-18T02:56:32.777Z,15.00
2022-11-18T02:57:37.218Z,11.10
2022-11-18T02:58:39.211Z,13.00
2022-11-18T02:59:41.823Z,13.44
2022-11-18T03:00:44.250Z,14.60
2022-11-18T03:01:46.922Z,14.90
2022-11-18T03:02:50.384Z,15.45
2022-11-18T03:03:52.767Z,14.30
2022-11-18T03:04:57.814Z,16.70
2022-11-18T03:06:18.636Z,14.90
2022-11-18T03:07:24.285Z,16.20
2022-11-18T03:08:30.084Z,11.40
2022-11-18T03:09:35.798Z,14.70
2022-11-18T03:10:44.370Z,14.70
2022-11-18T03:12:16.222Z,12.90
2022-11-18T03:13:24.857Z,14.80
2022-11-18T03:14:39.337Z,12.70
2022-11-18T03:15:48.083Z,12.10
2022-11-18T03:17:02.859Z,16.20
2022-11-18T03:18:19.403Z,16.40
2022-11-18T03:19:40.981Z,15.10
2022-11-18T03:21:08.032Z,16.09
2022-11-18T03:22:19.941Z,18.10
2022-11-18T03:23:32.159Z,11.60
2022-11-18T03:24:36.711Z,19.30
2022-11-18T03:25:45.532Z,14.70
2022-11-18T03:26:51.277Z,14.90
2022-11-18T03:28:13.575Z,17.60
2022-11-18T03:29:19.517Z,16.80
2022-11-18T03:30:23.822Z,15.00
2022-11-18T03:31:30.510Z,15.30
2022-11-18T03:32:36.846Z,17.40
2022-11-18T03:33:42.782Z,16.50
2022-11-18T03:34:48.412Z,15.60
2022-11-18T03:35:53.654Z,13.90
2022-11-18T03:37:00.797Z,17.00
2022-11-18T03:38:06.791Z,17.60
2022-11-18T03:39:12.236Z,14.10
2022-11-18T03:40:24.922Z,12.30
2022-11-18T03:41:30.429Z,14.60
2022-11-18T03:42:42.434Z,16.20
2022-11-18T03:43:59.917Z,18.70
2022-11-18T03:45:08.911Z,15.40
2022-11-18T03:46:14.480Z,15.90
2022-11-18T03:47:22.918Z,17.60
2022-11-18T03:48:34.259Z,17.20
2022-11-18T03:49:45.583Z,14.90
2022-11-18T03:50:51.795Z,13.60
2022-11-18T03:51:57.280Z,15.00
2022-11-18T03:53:01.801Z,21.00
2022-11-18T03:54:10.435Z,17.50
2022-11-18T03:55:15.922Z,17.40
2022-11-18T03:56:21.507Z,14.50
2022-11-18T03:57:26.972Z,16.20
2022-11-18T03:58:32.479Z,16.80
2022-11-18T03:59:47.081Z,16.20
2022-11-18T04:00:52.649Z,17.20
2022-11-18T04:02:03.886Z,15.80
2022-11-18T04:03:06.300Z,19.10
2022-11-18T04:04:09.479Z,18.60
2022-11-18T04:05:14.785Z,18.70
2022-11-18T04:06:26.139Z,17.30
2022-11-18T04:07:40.761Z,17.40
2022-11-18T04:08:45.218Z,15.60
2022-11-18T04:09:56.561Z,17.60
2022-11-18T04:11:08.408Z,16.30
2022-11-18T04:12:15.084Z,12.00
2022-11-18T04:13:26.341Z,20.20
2022-11-18T04:14:39.127Z,17.20
2022-11-18T04:15:42.236Z,16.50
2022-11-18T04:16:44.570Z,21.50
2022-11-18T04:17:46.446Z,14.40
2022-11-18T04:18:48.083Z,15.78
2022-11-18T04:19:49.916Z,17.11
2022-11-18T04:20:52.262Z,15.56
2022-11-18T04:21:54.063Z,17.00
2022-11-18T04:22:55.681Z,16.78
2022-11-18T04:23:57.301Z,15.56
2022-11-18T04:24:58.958Z,14.44
2022-11-18T04:26:00.704Z,12.00
2022-11-18T04:27:03.658Z,15.56
2022-11-18T04:28:06.309Z,15.10
2022-11-18T04:29:08.197Z,14.00
2022-11-18T04:30:11.135Z,16.00
2022-11-18T04:31:12.864Z,18.27
2022-11-18T04:32:14.578Z,19.22
2022-11-18T04:33:16.612Z,16.00
2022-11-18T04:34:18.504Z,9.70
2022-11-18T04:35:20.206Z,14.22
2022-11-18T04:36:22.515Z,13.00
2022-11-18T04:37:26.141Z,15.00
2022-11-18T04:38:28.047Z,10.40
2022-11-18T04:39:29.841Z,19.11
2022-11-18T04:40:31.564Z,14.44
2022-11-18T04:41:33.273Z,15.22
2022-11-18T04:42:35.428Z,17.33
2022-11-18T04:43:37.200Z,14.80
2022-11-18T04:44:39.132Z,12.44
2022-11-18T04:45:40.837Z,13.78
2022-11-18T04:46:44.806Z,17.33
2022-11-18T04:47:46.673Z,14.60
2022-11-18T04:48:48.456Z,18.67
2022-11-18T04:49:50.718Z,15.40
2022-11-18T04:50:52.994Z,13.00
2022-11-18T04:51:55.852Z,15.30
2022-11-18T04:52:57.930Z,11.64
2022-11-18T04:54:00.106Z,17.40
2022-11-18T04:55:02.267Z,15.90
2022-11-18T04:56:06.435Z,16.60
2022-11-18T04:57:08.563Z,15.80
2022-11-18T04:58:10.554Z,16.30
2022-11-18T04:59:13.838Z,17.11
2022-11-18T05:00:16.539Z,16.20
2022-11-18T05:01:18.426Z,20.10
2022-11-18T05:02:20.369Z,25.40
2022-11-18T05:03:22.036Z,23.22
2022-11-18T05:04:26.734Z,22.67
2022-11-18T05:05:28.531Z,18.90
2022-11-18T05:06:31.482Z,20.78
2022-11-18T05:07:33.327Z,34.91
2022-11-18T05:08:35.402Z,36.70
2022-11-18T05:09:37.014Z,29.00
2022-11-18T05:10:38.717Z,28.56
2022-11-18T05:11:40.574Z,29.56
2022-11-18T05:12:42.344Z,24.11
2022-11-18T05:13:44.521Z,21.70
2022-11-18T05:14:50.080Z,19.22
2022-11-18T05:15:50.039Z,19.10
2022-11-18T05:16:53.603Z,21.40
2022-11-18T05:17:55.533Z,20.70
2022-11-18T05:18:57.285Z,22.78
2022-11-18T05:19:59.002Z,21.67
2022-11-18T05:21:05.679Z,22.89
2022-11-18T05:22:07.573Z,22.30
2022-11-18T05:23:09.336Z,23.67
2022-11-18T05:24:11.533Z,22.89
2022-11-18T05:25:13.409Z,22.80
2022-11-18T05:26:15.589Z,24.50
2022-11-18T05:27:17.544Z,20.89
2022-11-18T05:28:19.146Z,20.33
2022-11-18T05:29:21.695Z,19.78
2022-11-18T05:30:23.464Z,20.40
2022-11-18T05:31:25.204Z,14.44
2022-11-18T05:32:27.019Z,26.00
2022-11-18T05:33:28.640Z,26.22
2022-11-18T05:34:30.364Z,24.44
2022-11-18T05:35:32.113Z,12.78
2022-11-18T05:36:34.358Z,16.33
2022-11-18T05:37:36.038Z,21.00
2022-11-18T05:38:37.846Z,26.11
2022-11-18T05:39:39.590Z,37.67
2022-11-18T05:40:44.531Z,35.67
2022-11-18T05:41:46.423Z,23.00
2022-11-18T05:42:48.271Z,20.80
2022-11-18T05:43:51.010Z,24.67
2022-11-18T05:44:57.776Z,15.36
2022-11-18T05:45:57.054Z,21.70
2022-11-18T05:46:59.399Z,20.20
2022-11-18T05:48:01.572Z,22.50
2022-11-18T05:49:04.876Z,17.30
2022-11-18T05:50:08.452Z,20.20
2022-11-18T05:51:10.158Z,19.90
2022-11-18T05:52:12.006Z,21.67
2022-11-18T05:53:14.241Z,16.89
2022-11-18T05:54:18.591Z,19.45
2022-11-18T05:55:23.799Z,18.60
2022-11-18T05:56:31.564Z,21.90
2022-11-18T05:57:33.285Z,17.90
2022-11-18T05:58:35.115Z,18.56
2022-11-18T05:59:36.819Z,22.44
2022-11-18T06:00:38.871Z,18.56
2022-11-18T06:01:47.218Z,17.80
2022-11-18T06:02:51.869Z,17.00
2022-11-18T06:03:54.474Z,15.10
2022-11-18T06:04:59.923Z,17.60
2022-11-18T06:06:04.251Z,17.10
2022-11-18T06:07:25.043Z,17.10
2022-11-18T06:08:31.624Z,18.50
2022-11-18T06:09:37.429Z,20.50
2022-11-18T06:10:43.546Z,16.00
2022-11-18T06:11:49.022Z,18.50
2022-11-18T06:12:54.219Z,14.20
2022-11-18T06:14:04.119Z,14.90
2022-11-18T06:15:10.994Z,15.80
2022-11-18T06:16:13.613Z,19.90
2022-11-18T06:17:19.259Z,34.90
2022-11-18T06:18:27.542Z,24.60
2022-11-18T06:19:31.783Z,19.70
2022-11-18T06:20:37.114Z,27.80
2022-11-18T06:21:39.157Z,23.60
2022-11-18T06:22:46.569Z,18.78
2022-11-18T06:23:46.867Z,19.50
2022-11-18T06:24:48.930Z,17.70
2022-11-18T06:25:50.915Z,23.20
2022-11-18T06:26:53.177Z,23.80
2022-11-18T06:27:58.616Z,22.00
2022-11-18T06:29:00.579Z,22.10
2022-11-18T06:30:03.323Z,19.90
2022-11-18T06:31:05.255Z,23.60
2022-11-18T06:32:07.256Z,25.30
2022-11-18T06:33:08.887Z,20.89
2022-11-18T06:34:11.040Z,17.78
2022-11-18T06:35:13.050Z,20.20
2022-11-18T06:36:14.873Z,23.70
2022-11-18T06:37:19.400Z,18.89
2022-11-18T06:38:25.080Z,23.10
2022-11-18T06:39:27.400Z,22.50
2022-11-18T06:40:34.487Z,23.60
2022-11-18T06:41:35.024Z,24.70
2022-11-18T06:42:37.310Z,24.50
2022-11-18T06:43:39.084Z,23.30
2022-11-18T06:44:41.302Z,25.67
2022-11-18T06:45:43.044Z,27.60
2022-11-18T06:46:45.372Z,25.89
2022-11-18T06:47:47.133Z,25.90
2022-11-18T06:48:50.570Z,16.11
2022-11-18T06:49:53.207Z,19.90
2022-11-18T06:50:54.978Z,23.20
2022-11-18T06:51:56.813Z,16.89
2022-11-18T06:53:02.052Z,24.56
2022-11-18T06:54:10.225Z,17.70
2022-11-18T06:55:08.719Z,20.90
2022-11-18T06:56:13.651Z,20.45
2022-11-18T06:57:15.711Z,21.00
2022-11-18T06:58:17.503Z,18.40
2022-11-18T06:59:19.613Z,19.00
2022-11-18T07:00:22.731Z,18.90
2022-11-18T07:01:27.367Z,14.82
2022-11-18T07:02:29.399Z,27.20
2022-11-18T07:03:31.452Z,26.56
2022-11-18T07:04:33.371Z,26.90
2022-11-18T07:05:35.560Z,19.67
2022-11-18T07:06:37.968Z,21.40
2022-11-18T07:07:42.258Z,21.50
2022-11-18T07:08:44.815Z,18.40
2022-11-18T07:09:46.743Z,17.60
2022-11-18T07:10:54.636Z,14.44
2022-11-18T07:11:56.640Z,18.00
2022-11-18T07:12:58.453Z,18.40
2022-11-18T07:14:00.459Z,18.11
2022-11-18T07:15:02.490Z,17.11
2022-11-18T07:16:10.804Z,25.30
2022-11-18T07:17:13.439Z,19.00
2022-11-18T07:18:15.108Z,17.90
2022-11-18T07:19:17.043Z,19.33
2022-11-18T07:20:19.619Z,23.20
2022-11-18T07:21:24.126Z,25.20
2022-11-18T07:22:25.871Z,19.80
2022-11-18T07:23:28.815Z,24.00
2022-11-18T07:24:30.828Z,24.00
2022-11-18T07:25:32.459Z,24.56
2022-11-18T07:26:35.498Z,25.11
2022-11-18T07:27:37.690Z,31.27
2022-11-18T07:28:39.969Z,25.30
2022-11-18T07:29:41.868Z,27.00
2022-11-18T07:30:43.683Z,24.89
2022-11-18T07:31:45.502Z,23.89
2022-11-18T07:32:47.118Z,21.33
2022-11-18T07:33:49.271Z,23.11
2022-11-18T07:34:51.051Z,22.00
2022-11-18T07:35:52.697Z,22.67
2022-11-18T07:36:55.578Z,24.56
2022-11-18T07:37:57.318Z,26.60
2022-11-18T07:39:00.230Z,26.89
2022-11-18T07:40:02.859Z,21.64
2022-11-18T07:41:26.491Z,29.10
2022-11-18T07:42:28.246Z,22.20
2022-11-18T07:43:30.666Z,22.56
2022-11-18T07:44:33.705Z,26.50
2022-11-18T07:45:40.445Z,19.10
2022-11-18T07:46:42.625Z,24.60
2022-11-18T07:47:44.700Z,22.20
2022-11-18T07:48:48.954Z,23.11
2022-11-18T07:49:50.760Z,22.40
2022-11-18T07:50:52.522Z,21.89
2022-11-18T07:51:54.476Z,25.11
2022-11-18T07:52:57.276Z,22.22
2022-11-18T07:53:59.274Z,21.40
2022-11-18T07:55:00.985Z,20.11
2022-11-18T07:56:04.622Z,20.00
2022-11-18T07:57:06.969Z,20.20
2022-11-18T07:58:08.771Z,25.50
2022-11-18T07:59:10.876Z,18.22
2022-11-18T08:00:13.876Z,23.30
2022-11-18T08:01:18.698Z,32.60
2022-11-18T08:02:21.200Z,26.40
2022-11-18T08:03:27.457Z,24.44
2022-11-18T08:04:30.526Z,26.10
2022-11-18T08:05:32.285Z,24.36
2022-11-18T08:06:35.850Z,20.40
2022-11-18T08:07:38.107Z,22.40
2022-11-18T08:08:41.291Z,25.50
2022-11-18T08:09:43.573Z,28.91
2022-11-18T08:10:45.850Z,28.00
2022-11-18T08:11:47.647Z,22.40
2022-11-18T08:12:49.983Z,34.00
2022-11-18T08:13:51.993Z,21.30
2022-11-18T08:14:56.161Z,24.44
2022-11-18T08:15:59.077Z,24.30
2022-11-18T08:17:02.115Z,27.00
2022-11-18T08:18:08.436Z,23.90
2022-11-18T08:19:08.450Z,22.60
2022-11-18T08:20:12.148Z,23.67
2022-11-18T08:22:31.907Z,29.30
2022-11-18T08:23:37.495Z,26.33
2022-11-18T08:24:37.616Z,29.30
2022-11-18T08:25:40.915Z,28.78
2022-11-18T08:26:42.861Z,23.70
2022-11-18T08:27:44.490Z,29.56
2022-11-18T08:28:47.390Z,26.22
2022-11-18T08:29:49.619Z,28.18
2022-11-18T08:30:52.137Z,22.00
2022-11-18T08:31:54.013Z,27.30
2022-11-18T08:32:55.740Z,27.00
2022-11-18T08:34:00.153Z,34.56
2022-11-18T08:35:39.895Z,28.80
2022-11-18T08:37:09.362Z,29.60
2022-11-18T08:38:11.937Z,25.60
2022-11-18T08:39:18.477Z,32.00
2022-11-18T08:40:21.840Z,33.30
2022-11-18T08:41:35.867Z,33.40
2022-11-18T08:42:37.835Z,62.40
2022-11-18T08:43:39.647Z,31.56
2022-11-18T08:44:41.388Z,29.00
2022-11-18T08:45:43.117Z,16.67
2022-11-18T08:46:45.705Z,22.11
2022-11-18T08:47:47.763Z,23.90
2022-11-18T08:48:49.496Z,23.22
2022-11-18T08:49:51.933Z,24.11
2022-11-18T08:50:54.751Z,26.10
2022-11-18T08:51:56.530Z,20.60
2022-11-18T08:52:58.274Z,30.44
2022-11-18T08:53:59.973Z,13.56
2022-11-18T08:55:02.495Z,24.33
2022-11-18T08:56:04.835Z,16.10
2022-11-18T08:57:06.642Z,22.90
2022-11-18T08:58:08.484Z,25.67
2022-11-18T08:59:10.421Z,19.00
2022-11-18T09:00:14.258Z,23.67
2022-11-18T09:01:16.927Z,18.90
2022-11-18T09:02:22.236Z,27.60
2022-11-18T09:03:25.195Z,25.80
2022-11-18T09:04:27.379Z,19.60
2022-11-18T09:05:29.330Z,25.70
2022-11-18T09:06:31.123Z,21.56
2022-11-18T09:07:33.165Z,21.33
2022-11-18T09:08:34.899Z,11.33
2022-11-18T09:09:37.675Z,19.11
2022-11-18T09:10:40.131Z,20.36
2022-11-18T09:11:41.913Z,28.70
2022-11-18T09:12:44.646Z,23.67
2022-11-18T09:14:25.957Z,23.10
2022-11-18T09:15:13.570Z,17.50
2022-11-18T09:15:58.061Z,28.00
2022-11-18T09:17:00.902Z,23.50
2022-11-18T09:18:03.629Z,23.18
2022-11-18T09:19:31.590Z,27.30
2022-11-18T09:20:10.939Z,24.70
2022-11-18T09:21:12.805Z,27.30
2022-11-18T09:22:14.716Z,24.33
2022-11-18T09:23:16.465Z,30.11
2022-11-18T09:24:19.817Z,33.78
2022-11-18T09:25:22.101Z,25.80
2022-11-18T09:26:24.018Z,28.70
2022-11-18T09:27:25.769Z,23.22
2022-11-18T09:28:28.692Z,28.67
2022-11-18T09:29:31.295Z,19.90
2022-11-18T09:30:33.673Z,21.10
2022-11-18T09:31:35.496Z,22.90
2022-11-18T09:32:37.308Z,24.22
2022-11-18T09:33:39.844Z,23.11
2022-11-18T09:34:41.612Z,23.00
2022-11-18T09:35:44.256Z,25.89
2022-11-18T09:36:46.245Z,24.50
2022-11-18T09:37:48.826Z,26.00
2022-11-18T09:38:53.391Z,22.80
2022-11-18T09:39:56.118Z,25.50
2022-11-18T09:41:10.673Z,26.50
2022-11-18T09:42:51.808Z,20.50
2022-11-18T09:44:19.363Z,23.10
2022-11-18T09:45:37.244Z,21.80
2022-11-18T09:46:54.836Z,20.70
2022-11-18T09:48:00.221Z,29.90
2022-11-18T09:49:06.879Z,21.50
2022-11-18T09:50:47.300Z,19.90
2022-11-18T09:51:19.410Z,24.27
2022-11-18T09:52:32.768Z,21.22
2022-11-18T09:53:32.281Z,20.80
2022-11-18T09:54:36.077Z,21.60
2022-11-18T09:55:39.042Z,18.90
2022-11-18T09:56:41.629Z,22.18
2022-11-18T09:57:52.946Z,22.70
2022-11-18T09:58:56.052Z,24.10
2022-11-18T10:00:01.088Z,19.30
2022-11-18T10:01:05.991Z,18.60
2022-11-18T10:02:27.032Z,23.20
2022-11-18T10:03:31.380Z,12.40
2022-11-18T10:04:33.802Z,15.90
2022-11-18T10:05:55.110Z,23.40
2022-11-18T10:06:58.174Z,18.50
2022-11-18T13:03:05.651Z,21.40
2022-11-18T13:04:17.383Z,25.30
2022-11-18T13:05:21.977Z,18.80
2022-11-18T13:06:29.949Z,13.91
2022-11-18T13:08:54.691Z,19.50
2022-11-18T13:09:58.125Z,27.00
2022-11-18T13:11:15.614Z,21.70
2022-11-18T13:12:18.811Z,17.50
2022-11-18T13:13:30.508Z,22.50
2022-11-18T13:14:35.544Z,18.80
2022-11-18T13:15:42.177Z,17.50
2022-11-18T13:16:44.316Z,26.00
2022-11-18T13:17:46.067Z,19.78
2022-11-18T13:18:50.690Z,16.44
2022-11-18T13:19:57.410Z,9.40
2022-11-18T13:21:00.730Z,18.70
2022-11-18T13:22:03.205Z,19.80
2022-11-18T13:23:11.646Z,18.10
2022-11-18T13:24:20.157Z,17.60
2022-11-18T13:25:24.704Z,19.40
2022-11-18T13:26:33.403Z,17.30
2022-11-18T13:27:50.868Z,17.60
2022-11-18T13:28:59.287Z,19.30
2022-11-18T13:30:04.846Z,5.40
2022-11-18T13:31:23.880Z,17.00
2022-11-18T13:32:40.231Z,18.10
2022-11-18T13:33:38.603Z,16.60
2022-11-18T13:34:44.326Z,19.70
2022-11-18T13:35:46.298Z,19.10
2022-11-18T13:36:50.522Z,22.30
2022-11-18T13:37:55.542Z,17.20
2022-11-18T13:39:00.824Z,17.30
2022-11-18T13:40:04.776Z,18.20
2022-11-18T13:41:10.303Z,19.20
2022-11-18T13:42:21.352Z,24.80
2022-11-18T13:43:26.284Z,20.90
2022-11-18T13:44:31.941Z,22.90
2022-11-18T13:45:34.793Z,23.60
2022-11-18T13:46:39.865Z,19.27
2022-11-18T13:47:55.594Z,25.50
2022-11-18T13:48:58.939Z,24.70
2022-11-18T13:50:16.861Z,25.60
2022-11-18T13:51:19.489Z,22.90
2022-11-18T13:52:39.976Z,31.00
2022-11-18T13:53:43.187Z,27.40
2022-11-18T13:54:46.205Z,28.90
2022-11-18T13:55:51.539Z,22.82
2022-11-18T13:56:54.185Z,24.10
2022-11-18T13:58:06.320Z,20.20
2022-11-18T13:59:18.505Z,28.00
2022-11-18T14:00:23.971Z,24.80
2022-11-18T14:01:29.582Z,25.10
2022-11-18T14:02:32.020Z,27.60
2022-11-18T14:03:49.923Z,28.80
2022-11-18T14:04:58.558Z,25.60
2022-11-18T14:06:01.131Z,18.10
2022-11-18T14:07:26.713Z,27.80
2022-11-18T14:08:36.222Z,24.50
2022-11-18T14:09:43.173Z,22.20
2022-11-18T14:10:45.531Z,32.10
2022-11-18T14:12:15.413Z,33.10
2022-11-18T14:13:30.327Z,26.60
2022-11-18T14:14:38.404Z,22.50
2022-11-18T14:15:44.329Z,26.40
2022-11-18T14:16:47.403Z,27.40
2022-11-18T14:17:56.194Z,25.90
2022-11-18T14:18:58.646Z,26.50
2022-11-18T14:20:05.896Z,23.00
2022-11-18T14:21:11.011Z,16.00
2022-11-18T14:22:16.670Z,18.40
2022-11-18T14:23:22.573Z,22.20
2022-11-18T14:24:26.953Z,28.50
2022-11-18T14:25:34.708Z,27.70
2022-11-18T14:26:38.055Z,28.50
2022-11-18T14:27:49.255Z,34.50
2022-11-18T14:28:56.709Z,35.20
2022-11-18T14:29:58.670Z,40.90
2022-11-18T14:31:04.514Z,33.50
2022-11-18T14:32:16.657Z,30.90
2022-11-18T14:33:23.273Z,32.40
2022-11-18T14:39:56.651Z,28.10
2022-11-18T14:41:01.088Z,31.20
2022-11-18T14:42:03.170Z,33.00
2022-11-18T14:43:05.276Z,33.11
2022-11-18T14:44:07.941Z,38.40
2022-11-18T14:45:12.280Z,38.20
2022-11-18T14:46:19.578Z,36.80
2022-11-18T14:47:27.479Z,37.90
2022-11-18T14:48:32.591Z,38.30
2022-11-18T14:49:36.180Z,31.90
2022-11-18T14:50:38.295Z,35.30
2022-11-18T14:51:40.243Z,39.89
2022-11-18T14:52:41.965Z,38.67
2022-11-18T14:53:43.683Z,39.00
2022-11-18T14:54:46.330Z,34.22
2022-11-18T14:55:51.422Z,40.60
2022-11-18T14:56:59.763Z,37.00
2022-11-18T14:58:01.697Z,32.60
2022-11-18T14:59:03.850Z,34.56
2022-11-18T15:00:09.880Z,32.80
2022-11-18T15:01:13.262Z,33.60
2022-11-18T15:02:16.841Z,30.70
2022-11-18T15:03:18.940Z,27.50
2022-11-18T15:04:21.457Z,27.70
2022-11-18T15:05:23.532Z,29.80
2022-11-18T15:06:26.437Z,28.33
2022-11-18T15:07:28.509Z,32.27
2022-11-18T15:08:30.871Z,26.10
2022-11-18T15:09:32.513Z,24.89
2022-11-18T15:10:37.102Z,28.11
2022-11-18T15:11:39.290Z,27.10
2022-11-18T15:12:42.015Z,23.30
2022-11-18T15:13:45.868Z,26.00
2022-11-18T15:14:47.803Z,29.00
2022-11-18T15:15:50.058Z,31.33
2022-11-18T15:16:51.943Z,26.20
2022-11-18T15:17:54.198Z,29.33
2022-11-18T15:19:00.351Z,30.40
2022-11-18T15:20:03.607Z,28.70
2022-11-18T15:21:05.932Z,25.00
2022-11-18T15:22:08.051Z,28.90
2022-11-18T15:23:09.673Z,27.78
2022-11-18T15:24:11.529Z,25.11
2022-11-18T15:25:13.438Z,26.56
2022-11-18T15:26:28.019Z,22.33
2022-11-18T15:27:29.847Z,25.40
2022-11-18T15:28:31.558Z,26.44
2022-11-18T15:29:33.172Z,32.11
2022-11-18T15:30:35.499Z,24.22
2022-11-18T15:31:37.280Z,25.70
2022-11-18T15:32:39.027Z,29.22
2022-11-18T15:33:40.861Z,26.78
2022-11-18T15:34:42.734Z,23.00
2022-11-18T15:35:45.885Z,24.30
2022-11-18T15:36:51.705Z,25.30
2022-11-18T15:37:53.998Z,33.50
2022-11-18T15:38:55.795Z,26.70
2022-11-18T15:39:58.658Z,27.78
2022-11-18T15:41:00.740Z,29.73
2022-11-18T15:42:02.605Z,25.11
2022-11-18T15:43:06.924Z,25.44
2022-11-18T15:44:10.040Z,28.50
2022-11-18T15:45:12.133Z,23.91
2022-11-18T15:46:15.723Z,23.20
2022-11-18T15:47:17.662Z,27.30
2022-11-18T15:48:20.052Z,23.20
2022-11-18T15:49:22.213Z,24.80
2022-11-18T15:50:24.865Z,25.30
2022-11-18T15:51:29.616Z,27.90
2022-11-18T15:52:31.492Z,30.40
2022-11-18T15:53:33.442Z,27.44
2022-11-18T15:54:35.798Z,27.30
2022-11-18T15:55:38.515Z,25.70
2022-11-18T15:56:41.674Z,23.36
2022-11-18T15:57:44.810Z,30.20
2022-11-18T15:59:00.087Z,24.73
2022-11-18T16:00:05.395Z,26.50
2022-11-18T16:01:09.626Z,25.60
2022-11-18T16:02:11.672Z,27.00
2022-11-18T16:03:14.352Z,22.56
2022-11-18T16:04:18.908Z,27.10
2022-11-18T16:05:21.063Z,20.80
2022-11-18T16:06:23.881Z,25.22
2022-11-18T16:07:25.839Z,24.27
2022-11-18T16:08:29.350Z,23.90
2022-11-18T16:09:32.294Z,25.40
2022-11-18T16:10:34.243Z,21.80
2022-11-18T16:11:37.050Z,19.78
2022-11-18T16:12:40.883Z,21.60
2022-11-18T16:13:43.900Z,21.50
2022-11-18T16:14:45.730Z,22.10
2022-11-18T16:15:47.589Z,19.89
2022-11-18T16:16:52.116Z,22.67
2022-11-18T16:17:55.371Z,17.80
2022-11-18T16:18:59.493Z,24.40
2022-11-18T16:20:01.350Z,21.00
2022-11-18T16:21:03.308Z,20.78
2022-11-18T16:22:05.524Z,20.22
2022-11-18T16:23:08.432Z,21.60
2022-11-18T16:24:12.808Z,22.80
2022-11-18T16:25:14.757Z,21.70
2022-11-18T16:26:17.534Z,24.10
2022-11-18T16:27:20.880Z,22.40
2022-11-18T16:28:23.276Z,20.70
2022-11-18T16:29:25.576Z,19.30
2022-11-18T16:30:28.106Z,21.90
2022-11-18T16:31:30.033Z,20.11
2022-11-18T16:32:33.985Z,29.60
2022-11-18T16:33:36.989Z,24.82
2022-11-18T16:34:39.835Z,20.20
2022-11-18T16:35:48.625Z,21.60
2022-11-18T16:36:53.939Z,22.20
2022-11-18T16:37:55.905Z,22.40
2022-11-18T16:38:57.725Z,25.67
2022-11-18T16:40:00.256Z,22.56
2022-11-18T16:41:02.022Z,22.50
2022-11-18T16:42:08.719Z,22.22
2022-11-18T16:43:07.859Z,19.70
2022-11-18T16:44:16.686Z,24.22
2022-11-18T16:45:19.803Z,29.90
2022-11-18T16:46:22.186Z,22.00
2022-11-18T16:47:24.531Z,22.50
2022-11-18T16:48:28.394Z,20.80
2022-11-18T16:49:30.520Z,25.10
2022-11-18T16:50:32.540Z,20.50
2022-11-18T16:51:35.113Z,18.89
2022-11-18T16:52:38.235Z,22.80
2022-11-18T16:53:41.880Z,23.00
2022-11-18T16:54:46.028Z,25.20
2022-11-18T16:55:47.551Z,24.60
2022-11-18T16:56:52.092Z,25.00
2022-11-18T16:57:53.823Z,25.80
2022-11-18T16:58:58.821Z,24.56
2022-11-18T17:00:00.801Z,22.50
2022-11-18T17:01:19.614Z,20.00
2022-11-18T17:02:14.385Z,26.10
2022-11-18T17:03:16.270Z,26.40
2022-11-18T17:04:20.154Z,28.00
2022-11-18T17:05:21.942Z,26.00
2022-11-18T17:06:24.450Z,25.67
2022-11-18T17:07:27.328Z,26.00
2022-11-18T17:08:34.838Z,23.36
2022-11-18T17:09:36.800Z,25.90
2022-11-18T17:10:40.662Z,24.50
2022-11-18T17:11:42.784Z,26.80
2022-11-18T17:12:47.628Z,20.60
2022-11-18T17:13:53.348Z,27.50
2022-11-18T17:14:53.802Z,23.20
2022-11-18T17:15:55.543Z,20.00
2022-11-18T17:16:59.992Z,23.78
2022-11-18T17:18:02.017Z,25.20
2022-11-18T17:19:17.276Z,19.20
2022-11-18T17:20:12.868Z,24.40